sensor_id;sensor_type;location;lat;lon;timestamp;temperature;humidity
41922;DHT22;27609;51.002;5.354;2023-06-14T08:19:10;30.30;72.60
41922;DHT22;27609;51.002;5.354;2023-06-14T08:21:36;30.90;68.80
41922;DHT22;27609;51.002;5.354;2023-06-14T08:24:02;30.90;67.50
41922;DHT22;27609;51.002;5.354;2023-06-14T08:26:27;30.90;68.60
41922;DHT22;27609;51.002;5.354;2023-06-14T08:28:57;30.90;67.30
41922;DHT22;27609;51.002;5.354;2023-06-14T08:31:23;30.90;66.50
41922;DHT22;27609;51.002;5.354;2023-06-14T08:33:50;30.20;67.30
41922;DHT22;27609;51.002;5.354;2023-06-14T08:36:16;29.40;71.20
41922;DHT22;27609;51.002;5.354;2023-06-14T08:38:42;29.60;68.10
41922;DHT22;27609;51.002;5.354;2023-06-14T08:41:08;30.00;69.30
41922;DHT22;27609;51.002;5.354;2023-06-14T08:43:37;30.70;67.30
41922;DHT22;27609;51.002;5.354;2023-06-14T08:46:04;32.40;64.50
41922;DHT22;27609;51.002;5.354;2023-06-14T08:48:32;32.00;64.80
41922;DHT22;27609;51.002;5.354;2023-06-14T08:51:02;31.70;63.80
41922;DHT22;27609;51.002;5.354;2023-06-14T08:53:33;31.20;63.60
41922;DHT22;27609;51.002;5.354;2023-06-14T08:56:02;32.20;63.30
41922;DHT22;27609;51.002;5.354;2023-06-14T08:58:34;33.60;61.20
41922;DHT22;27609;51.002;5.354;2023-06-14T09:01:02;33.00;61.40
41922;DHT22;27609;51.002;5.354;2023-06-14T09:03:28;32.10;62.50
41922;DHT22;27609;51.002;5.354;2023-06-14T09:05:58;32.40;63.00
41922;DHT22;27609;51.002;5.354;2023-06-14T09:08:25;31.30;61.70
41922;DHT22;27609;51.002;5.354;2023-06-14T09:10:51;32.80;59.90
41922;DHT22;27609;51.002;5.354;2023-06-14T09:13:17;32.10;60.40
41922;DHT22;27609;51.002;5.354;2023-06-14T09:15:43;31.80;59.10
41922;DHT22;27609;51.002;5.354;2023-06-14T09:18:09;33.30;59.90
41922;DHT22;27609;51.002;5.354;2023-06-14T09:20:35;34.40;59.50
41922;DHT22;27609;51.002;5.354;2023-06-14T09:23:01;34.30;57.60
41922;DHT22;27609;51.002;5.354;2023-06-14T09:25:28;34.70;58.10
41922;DHT22;27609;51.002;5.354;2023-06-14T09:27:53;35.80;56.40
41922;DHT22;27609;51.002;5.354;2023-06-14T09:30:20;35.60;56.30
41922;DHT22;27609;51.002;5.354;2023-06-14T09:32:46;35.10;57.10
41922;DHT22;27609;51.002;5.354;2023-06-14T09:35:12;34.70;56.90
41922;DHT22;27609;51.002;5.354;2023-06-14T09:37:42;33.70;57.40
41922;DHT22;27609;51.002;5.354;2023-06-14T09:40:08;33.90;57.10
41922;DHT22;27609;51.002;5.354;2023-06-14T09:42:35;33.00;56.40
41922;DHT22;27609;51.002;5.354;2023-06-14T09:45:02;34.30;56.70
41922;DHT22;27609;51.002;5.354;2023-06-14T09:47:29;35.40;55.20
41922;DHT22;27609;51.002;5.354;2023-06-14T09:49:55;34.10;57.00
41922;DHT22;27609;51.002;5.354;2023-06-14T09:52:22;34.70;54.60
41922;DHT22;27609;51.002;5.354;2023-06-14T09:54:48;35.00;55.60
41922;DHT22;27609;51.002;5.354;2023-06-14T09:57:16;35.40;53.40
41922;DHT22;27609;51.002;5.354;2023-06-14T09:59:44;36.00;54.20
41922;DHT22;27609;51.002;5.354;2023-06-14T10:02:29;36.80;52.90
41922;DHT22;27609;51.002;5.354;2023-06-14T10:05:07;37.00;51.10
41922;DHT22;27609;51.002;5.354;2023-06-14T10:07:40;33.80;53.50
41922;DHT22;27609;51.002;5.354;2023-06-14T10:10:06;33.40;54.00
41922;DHT22;27609;51.002;5.354;2023-06-14T10:12:33;33.70;54.20
41922;DHT22;27609;51.002;5.354;2023-06-14T10:14:59;34.30;53.40
41922;DHT22;27609;51.002;5.354;2023-06-14T10:20:19;34.40;53.30
41922;DHT22;27609;51.002;5.354;2023-06-14T10:23:07;36.00;51.20
41922;DHT22;27609;51.002;5.354;2023-06-14T10:25:34;36.50;51.10
41922;DHT22;27609;51.002;5.354;2023-06-14T10:28:19;37.20;50.60
41922;DHT22;27609;51.002;5.354;2023-06-14T10:31:06;36.90;50.60
41922;DHT22;27609;51.002;5.354;2023-06-14T10:33:33;37.10;49.30
41922;DHT22;27609;51.002;5.354;2023-06-14T10:36:26;37.40;49.30
41922;DHT22;27609;51.002;5.354;2023-06-14T10:39:14;39.60;49.90
41922;DHT22;27609;51.002;5.354;2023-06-14T10:41:41;38.30;48.10
41922;DHT22;27609;51.002;5.354;2023-06-14T10:46:49;37.00;48.80
41922;DHT22;27609;51.002;5.354;2023-06-14T10:49:19;37.10;48.20
41922;DHT22;27609;51.002;5.354;2023-06-14T10:51:49;38.60;49.00
41922;DHT22;27609;51.002;5.354;2023-06-14T10:54:16;40.10;45.40
41922;DHT22;27609;51.002;5.354;2023-06-14T10:56:48;41.70;44.40
41922;DHT22;27609;51.002;5.354;2023-06-14T10:59:14;41.00;44.00
41922;DHT22;27609;51.002;5.354;2023-06-14T11:04:49;37.10;44.60
41922;DHT22;27609;51.002;5.354;2023-06-14T11:12:41;40.30;42.00
41922;DHT22;27609;51.002;5.354;2023-06-14T11:15:09;37.80;43.50
41922;DHT22;27609;51.002;5.354;2023-06-14T11:17:35;37.80;44.10
41922;DHT22;27609;51.002;5.354;2023-06-14T11:20:11;39.40;43.30
41922;DHT22;27609;51.002;5.354;2023-06-14T11:22:41;37.00;44.20
41922;DHT22;27609;51.002;5.354;2023-06-14T11:25:11;35.30;44.80
41922;DHT22;27609;51.002;5.354;2023-06-14T11:27:37;35.20;45.00
41922;DHT22;27609;51.002;5.354;2023-06-14T11:30:07;36.10;45.10
41922;DHT22;27609;51.002;5.354;2023-06-14T11:32:33;36.90;45.60
41922;DHT22;27609;51.002;5.354;2023-06-14T11:34:59;37.60;44.90
41922;DHT22;27609;51.002;5.354;2023-06-14T11:37:27;38.00;45.10
41922;DHT22;27609;51.002;5.354;2023-06-14T11:39:57;39.50;42.80
41922;DHT22;27609;51.002;5.354;2023-06-14T11:42:23;41.00;42.60
41922;DHT22;27609;51.002;5.354;2023-06-14T11:44:49;40.60;42.60
41922;DHT22;27609;51.002;5.354;2023-06-14T11:47:15;40.20;42.70
41922;DHT22;27609;51.002;5.354;2023-06-14T11:49:41;39.20;42.80
41922;DHT22;27609;51.002;5.354;2023-06-14T11:52:07;38.10;44.00
41922;DHT22;27609;51.002;5.354;2023-06-14T11:54:33;36.00;44.30
41922;DHT22;27609;51.002;5.354;2023-06-14T11:56:59;35.30;45.50
41922;DHT22;27609;51.002;5.354;2023-06-14T11:59:25;36.70;44.60
41922;DHT22;27609;51.002;5.354;2023-06-14T12:01:53;36.90;44.10
41922;DHT22;27609;51.002;5.354;2023-06-14T12:04:29;38.60;43.40
41922;DHT22;27609;51.002;5.354;2023-06-14T12:06:55;38.30;44.40
41922;DHT22;27609;51.002;5.354;2023-06-14T12:09:23;36.30;44.60
41922;DHT22;27609;51.002;5.354;2023-06-14T12:12:00;36.40;44.50
41922;DHT22;27609;51.002;5.354;2023-06-14T12:14:30;37.50;43.90
41922;DHT22;27609;51.002;5.354;2023-06-14T12:17:06;37.30;44.80
41922;DHT22;27609;51.002;5.354;2023-06-14T12:19:33;38.10;44.30
41922;DHT22;27609;51.002;5.354;2023-06-14T12:22:04;38.40;44.30
41922;DHT22;27609;51.002;5.354;2023-06-14T12:24:31;37.00;45.20
41922;DHT22;27609;51.002;5.354;2023-06-14T12:26:58;38.10;44.30
41922;DHT22;27609;51.002;5.354;2023-06-14T12:29:29;38.40;44.00
41922;DHT22;27609;51.002;5.354;2023-06-14T12:31:55;39.20;43.50
41922;DHT22;27609;51.002;5.354;2023-06-14T12:34:26;40.60;43.00
41922;DHT22;27609;51.002;5.354;2023-06-14T12:36:53;39.00;44.80
41922;DHT22;27609;51.002;5.354;2023-06-14T12:39:19;39.90;44.30
41922;DHT22;27609;51.002;5.354;2023-06-14T12:41:45;39.70;43.40
41922;DHT22;27609;51.002;5.354;2023-06-14T12:44:11;38.50;44.10
41922;DHT22;27609;51.002;5.354;2023-06-14T12:46:38;38.80;45.30
41922;DHT22;27609;51.002;5.354;2023-06-14T12:49:11;39.90;44.60
41922;DHT22;27609;51.002;5.354;2023-06-14T12:51:38;39.00;44.40
41922;DHT22;27609;51.002;5.354;2023-06-14T12:54:04;38.80;43.20
41922;DHT22;27609;51.002;5.354;2023-06-14T12:56:30;37.70;43.60
41922;DHT22;27609;51.002;5.354;2023-06-14T12:58:56;37.10;44.30
41922;DHT22;27609;51.002;5.354;2023-06-14T13:01:21;37.10;44.20
41922;DHT22;27609;51.002;5.354;2023-06-14T13:03:48;36.10;45.50
41922;DHT22;27609;51.002;5.354;2023-06-14T13:06:15;34.90;45.60
41922;DHT22;27609;51.002;5.354;2023-06-14T13:08:41;33.20;47.50
41922;DHT22;27609;51.002;5.354;2023-06-14T13:11:07;34.10;48.10
41922;DHT22;27609;51.002;5.354;2023-06-14T13:13:32;35.40;46.80
41922;DHT22;27609;51.002;5.354;2023-06-14T13:15:58;35.70;46.30
41922;DHT22;27609;51.002;5.354;2023-06-14T13:18:24;35.60;47.30
41922;DHT22;27609;51.002;5.354;2023-06-14T13:20:50;35.80;47.40
41922;DHT22;27609;51.002;5.354;2023-06-14T13:23:16;35.10;47.10
41922;DHT22;27609;51.002;5.354;2023-06-14T13:25:42;34.20;48.00
41922;DHT22;27609;51.002;5.354;2023-06-14T13:28:08;33.10;48.30
41922;DHT22;27609;51.002;5.354;2023-06-14T13:30:34;32.80;47.80
41922;DHT22;27609;51.002;5.354;2023-06-14T13:33:00;32.90;48.80
41922;DHT22;27609;51.002;5.354;2023-06-14T13:35:25;33.90;47.90
41922;DHT22;27609;51.002;5.354;2023-06-14T13:37:51;34.60;48.60
41922;DHT22;27609;51.002;5.354;2023-06-14T13:40:17;33.50;48.60
41922;DHT22;27609;51.002;5.354;2023-06-14T13:42:43;33.00;48.00
41922;DHT22;27609;51.002;5.354;2023-06-14T13:45:11;33.80;47.80
41922;DHT22;27609;51.002;5.354;2023-06-14T13:47:37;34.60;48.20
41922;DHT22;27609;51.002;5.354;2023-06-14T13:50:04;33.50;49.80
41922;DHT22;27609;51.002;5.354;2023-06-14T13:52:30;33.10;49.00
41922;DHT22;27609;51.002;5.354;2023-06-14T13:54:56;33.30;47.20
41922;DHT22;27609;51.002;5.354;2023-06-14T13:57:22;32.70;47.90
41922;DHT22;27609;51.002;5.354;2023-06-14T13:59:47;32.40;47.90
41922;DHT22;27609;51.002;5.354;2023-06-14T14:02:13;31.70;47.60
41922;DHT22;27609;51.002;5.354;2023-06-14T14:04:40;32.00;49.60
41922;DHT22;27609;51.002;5.354;2023-06-14T14:07:06;32.30;48.50
41922;DHT22;27609;51.002;5.354;2023-06-14T14:09:33;32.70;48.50
41922;DHT22;27609;51.002;5.354;2023-06-14T14:12:00;32.30;48.00
41922;DHT22;27609;51.002;5.354;2023-06-14T14:14:27;32.50;48.40
41922;DHT22;27609;51.002;5.354;2023-06-14T14:16:53;31.50;49.30
41922;DHT22;27609;51.002;5.354;2023-06-14T14:19:20;31.60;49.10
41922;DHT22;27609;51.002;5.354;2023-06-14T14:21:47;31.80;48.80
41922;DHT22;27609;51.002;5.354;2023-06-14T14:24:13;30.90;49.40
41922;DHT22;27609;51.002;5.354;2023-06-14T14:26:39;31.10;49.40
41922;DHT22;27609;51.002;5.354;2023-06-14T14:29:05;30.70;49.10
41922;DHT22;27609;51.002;5.354;2023-06-14T14:31:31;30.70;50.10
41922;DHT22;27609;51.002;5.354;2023-06-14T14:33:57;31.10;49.70
41922;DHT22;27609;51.002;5.354;2023-06-14T14:36:23;31.00;51.00
41922;DHT22;27609;51.002;5.354;2023-06-14T14:38:48;30.40;51.50
41922;DHT22;27609;51.002;5.354;2023-06-14T14:41:14;30.90;52.30
41922;DHT22;27609;51.002;5.354;2023-06-14T14:43:40;31.30;50.80
41922;DHT22;27609;51.002;5.354;2023-06-14T14:46:06;31.50;51.90
41922;DHT22;27609;51.002;5.354;2023-06-14T14:48:32;31.70;51.90
41922;DHT22;27609;51.002;5.354;2023-06-14T14:50:57;31.80;52.20
41922;DHT22;27609;51.002;5.354;2023-06-14T14:53:23;31.40;50.40
41922;DHT22;27609;51.002;5.354;2023-06-14T14:55:49;30.70;50.00
41922;DHT22;27609;51.002;5.354;2023-06-14T14:58:15;29.40;51.90
41922;DHT22;27609;51.002;5.354;2023-06-14T15:00:47;29.50;54.10
41922;DHT22;27609;51.002;5.354;2023-06-14T15:03:13;29.70;53.60
41922;DHT22;27609;51.002;5.354;2023-06-14T15:05:40;29.20;52.00
41922;DHT22;27609;51.002;5.354;2023-06-14T15:08:06;29.10;53.40
41922;DHT22;27609;51.002;5.354;2023-06-14T15:10:41;29.40;52.80
41922;DHT22;27609;51.002;5.354;2023-06-14T15:13:10;29.60;52.90
41922;DHT22;27609;51.002;5.354;2023-06-14T15:15:36;29.80;52.90
41922;DHT22;27609;51.002;5.354;2023-06-14T15:18:02;30.30;52.70
41922;DHT22;27609;51.002;5.354;2023-06-14T15:20:28;30.40;51.20
41922;DHT22;27609;51.002;5.354;2023-06-14T15:22:54;30.30;51.50
41922;DHT22;27609;51.002;5.354;2023-06-14T15:25:26;30.30;51.30
41922;DHT22;27609;51.002;5.354;2023-06-14T15:27:51;30.30;51.20
41922;DHT22;27609;51.002;5.354;2023-06-14T15:30:17;29.90;51.10
41922;DHT22;27609;51.002;5.354;2023-06-14T15:32:43;29.40;50.60
41922;DHT22;27609;51.002;5.354;2023-06-14T15:35:08;29.00;51.20
41922;DHT22;27609;51.002;5.354;2023-06-14T15:37:34;29.00;51.30
41922;DHT22;27609;51.002;5.354;2023-06-14T15:40:00;29.00;51.30
41922;DHT22;27609;51.002;5.354;2023-06-14T15:42:25;29.40;52.10
41922;DHT22;27609;51.002;5.354;2023-06-14T15:44:51;29.70;51.00
41922;DHT22;27609;51.002;5.354;2023-06-14T15:47:17;29.90;51.30
41922;DHT22;27609;51.002;5.354;2023-06-14T15:49:42;29.40;52.10
41922;DHT22;27609;51.002;5.354;2023-06-14T15:52:08;29.00;52.70
41922;DHT22;27609;51.002;5.354;2023-06-14T15:54:34;29.20;53.50
41922;DHT22;27609;51.002;5.354;2023-06-14T15:57:00;29.10;54.00
41922;DHT22;27609;51.002;5.354;2023-06-14T15:59:25;29.00;52.90
41922;DHT22;27609;51.002;5.354;2023-06-14T16:01:53;29.00;53.40
41922;DHT22;27609;51.002;5.354;2023-06-14T16:04:19;28.90;53.90
41922;DHT22;27609;51.002;5.354;2023-06-14T16:06:45;28.60;53.30
41922;DHT22;27609;51.002;5.354;2023-06-14T16:09:11;28.20;54.00
41922;DHT22;27609;51.002;5.354;2023-06-14T16:11:36;28.20;54.40
41922;DHT22;27609;51.002;5.354;2023-06-14T16:14:02;28.10;55.60
41922;DHT22;27609;51.002;5.354;2023-06-14T16:16:28;28.00;55.00
41922;DHT22;27609;51.002;5.354;2023-06-14T16:18:54;27.90;54.10
41922;DHT22;27609;51.002;5.354;2023-06-14T16:21:19;27.70;54.90
41922;DHT22;27609;51.002;5.354;2023-06-14T16:23:45;27.40;54.80
41922;DHT22;27609;51.002;5.354;2023-06-14T16:26:11;27.60;54.90
41922;DHT22;27609;51.002;5.354;2023-06-14T16:28:39;27.60;55.40
41922;DHT22;27609;51.002;5.354;2023-06-14T16:31:09;27.30;56.30
41922;DHT22;27609;51.002;5.354;2023-06-14T16:33:35;27.30;56.50
41922;DHT22;27609;51.002;5.354;2023-06-14T16:36:01;27.20;56.60
41922;DHT22;27609;51.002;5.354;2023-06-14T16:38:26;27.00;57.70
41922;DHT22;27609;51.002;5.354;2023-06-14T16:40:52;27.10;58.20
41922;DHT22;27609;51.002;5.354;2023-06-14T16:43:18;27.10;57.10
41922;DHT22;27609;51.002;5.354;2023-06-14T16:45:43;27.10;57.90
41922;DHT22;27609;51.002;5.354;2023-06-14T16:48:09;27.20;57.70
41922;DHT22;27609;51.002;5.354;2023-06-14T16:50:35;27.20;57.90
41922;DHT22;27609;51.002;5.354;2023-06-14T16:53:00;26.90;58.00
41922;DHT22;27609;51.002;5.354;2023-06-14T16:55:26;26.80;58.90
41922;DHT22;27609;51.002;5.354;2023-06-14T16:57:52;26.50;58.40
41922;DHT22;27609;51.002;5.354;2023-06-14T17:00:18;26.30;58.40
41922;DHT22;27609;51.002;5.354;2023-06-14T17:02:43;26.30;58.50
41922;DHT22;27609;51.002;5.354;2023-06-14T17:05:11;26.40;59.20
41922;DHT22;27609;51.002;5.354;2023-06-14T17:07:37;26.50;58.50
41922;DHT22;27609;51.002;5.354;2023-06-14T17:10:02;26.60;59.50
41922;DHT22;27609;51.002;5.354;2023-06-14T17:12:28;26.30;59.00
41922;DHT22;27609;51.002;5.354;2023-06-14T17:14:54;26.20;59.50
41922;DHT22;27609;51.002;5.354;2023-06-14T17:17:19;26.20;58.60
41922;DHT22;27609;51.002;5.354;2023-06-14T17:19:45;26.20;59.20
41922;DHT22;27609;51.002;5.354;2023-06-14T17:22:11;26.30;58.90
41922;DHT22;27609;51.002;5.354;2023-06-14T17:24:36;26.20;58.90
41922;DHT22;27609;51.002;5.354;2023-06-14T17:27:02;26.10;58.90
41922;DHT22;27609;51.002;5.354;2023-06-14T17:29:28;26.10;59.10
41922;DHT22;27609;51.002;5.354;2023-06-14T17:31:53;26.10;59.60
41922;DHT22;27609;51.002;5.354;2023-06-14T17:34:19;26.20;59.60
41922;DHT22;27609;51.002;5.354;2023-06-14T23:18:34;18.30;99.90
41922;DHT22;27609;51.002;5.354;2023-06-14T23:21:01;18.40;99.90
41922;DHT22;27609;51.002;5.354;2023-06-14T23:23:27;18.40;99.90
41922;DHT22;27609;51.002;5.354;2023-06-14T23:25:53;18.40;99.90
41922;DHT22;27609;51.002;5.354;2023-06-14T23:28:20;18.40;99.90
41922;DHT22;27609;51.002;5.354;2023-06-14T23:30:46;18.30;99.90
41922;DHT22;27609;51.002;5.354;2023-06-14T23:33:12;18.30;99.90
41922;DHT22;27609;51.002;5.354;2023-06-14T23:35:39;18.20;99.90
41922;DHT22;27609;51.002;5.354;2023-06-14T23:38:09;18.20;99.90
41922;DHT22;27609;51.002;5.354;2023-06-14T23:40:38;18.10;99.90
41922;DHT22;27609;51.002;5.354;2023-06-14T23:43:05;18.20;99.90
41922;DHT22;27609;51.002;5.354;2023-06-14T23:45:34;18.10;99.90
41922;DHT22;27609;51.002;5.354;2023-06-14T23:48:01;18.10;99.90
41922;DHT22;27609;51.002;5.354;2023-06-14T23:50:26;18.10;99.90
41922;DHT22;27609;51.002;5.354;2023-06-14T23:52:52;18.00;99.90
41922;DHT22;27609;51.002;5.354;2023-06-14T23:55:26;18.00;99.90
41922;DHT22;27609;51.002;5.354;2023-06-14T23:57:53;17.90;99.90
